Time;durP1;ratioP1;P1;durP2;ratioP2;P2;SDS_P1;SDS_P2;PMS_P1;PMS_P2;Temp;Humidity;BMP_temperature;BMP_pressure;BME280_temperature;BME280_humidity;BME280_pressure;Samples;Min_cycle;Max_cycle;Signal;HPM_P1;HPM_P2
2022/11/05 00:10:43;;;;;;;7.90;5.67;;;6.50;99.90;;;;;;6217719;23;20529;-84
2022/11/05 00:18:38;;;;;;;10.50;6.70;;;6.50;99.90;;;;;;6217727;23;20484;-85
2022/11/05 00:25:12;;;;;;;10.17;6.07;;;6.50;99.90;;;;;;6190629;23;20160;-84
2022/11/05 00:26:36;;;;;;;9.70;6.17;;;6.50;99.90;;;;;;6155815;23;20177;-85
2022/11/05 00:29:01;;;;;;;9.73;6.37;;;6.50;99.90;;;;;;6160653;23;20191;-85
2022/11/05 00:31:27;;;;;;;15.03;6.70;;;6.50;99.90;;;;;;6161071;23;20164;-84
2022/11/05 00:33:52;;;;;;;10.93;7.00;;;6.50;99.90;;;;;;6160559;23;20169;-85
2022/11/05 00:36:18;;;;;;;10.67;6.37;;;6.50;99.90;;;;;;6162456;23;20161;-86
2022/11/05 00:38:43;;;;;;;9.93;6.93;;;6.50;99.90;;;;;;6161848;23;20579;-83
2022/11/05 00:41:09;;;;;;;10.07;6.10;;;6.50;99.90;;;;;;6160957;23;20608;-84
2022/11/05 00:46:18;;;;;;;15.27;6.90;;;6.60;99.90;;;;;;6187008;23;20152;-84
2022/11/05 00:51:28;;;;;;;9.40;6.63;;;6.40;99.90;;;;;;6186919;23;20543;-84
2022/11/05 00:53:54;;;;;;;9.73;6.33;;;6.40;99.90;;;;;;6160503;23;20157;-83
2022/11/05 00:56:19;;;;;;;9.57;6.43;;;6.50;99.90;;;;;;6160353;23;20559;-84
2022/11/05 00:58:45;;;;;;;10.00;6.27;;;6.50;99.90;;;;;;6160492;23;20175;-83
2022/11/05 01:01:10;;;;;;;9.80;6.73;;;6.50;99.90;;;;;;6160392;23;20184;-84
2022/11/05 01:03:37;;;;;;;7.77;6.33;;;6.40;99.90;;;;;;6160402;23;20171;-85
2022/11/05 01:06:10;;;;;;;10.03;6.40;;;6.50;99.90;;;;;;6160213;23;20694;-83
2022/11/05 01:08:35;;;;;;;9.23;6.27;;;6.40;99.90;;;;;;6160769;23;20261;-84
2022/11/05 01:11:11;;;;;;;9.37;5.77;;;6.40;99.90;;;;;;6160261;23;20609;-84
2022/11/05 01:13:37;;;;;;;8.40;5.47;;;6.30;99.90;;;;;;6160232;23;20494;-84
2022/11/05 01:16:08;;;;;;;10.03;6.00;;;6.30;99.90;;;;;;6160118;23;20215;-85
2022/11/05 01:18:36;;;;;;;9.07;5.80;;;6.20;99.90;;;;;;6160240;23;20154;-84
2022/11/05 01:21:10;;;;;;;9.87;6.57;;;6.10;99.90;;;;;;6186454;23;20157;-84
2022/11/05 01:23:35;;;;;;;10.20;6.60;;;6.10;99.90;;;;;;6160427;23;20618;-84
2022/11/05 01:26:01;;;;;;;8.97;5.87;;;6.00;99.90;;;;;;6177189;23;20194;-83
2022/11/05 01:28:26;;;;;;;12.77;5.87;;;6.00;99.90;;;;;;6190491;23;20184;-85
2022/11/05 01:30:55;;;;;;;7.07;5.70;;;5.90;99.90;;;;;;6189964;23;20163;-84
2022/11/05 01:33:21;;;;;;;9.87;6.03;;;5.90;99.90;;;;;;6190039;23;20184;-84
2022/11/05 01:35:50;;;;;;;8.30;6.23;;;5.80;99.90;;;;;;6189815;23;20184;-84
2022/11/05 01:38:20;;;;;;;8.10;5.80;;;5.80;99.90;;;;;;6190371;23;20160;-83
2022/11/05 01:40:46;;;;;;;8.73;5.70;;;6.00;99.90;;;;;;6189890;23;20149;-84
2022/11/05 01:43:20;;;;;;;9.17;6.00;;;5.70;99.90;;;;;;6189907;23;20232;-83
2022/11/05 01:45:50;;;;;;;10.17;6.00;;;5.70;99.90;;;;;;6202706;23;20179;-86
2022/11/05 01:48:19;;;;;;;8.37;5.40;;;5.60;99.90;;;;;;6205290;23;20251;-86
2022/11/05 01:50:54;;;;;;;9.60;5.60;;;5.60;99.90;;;;;;6206741;23;20181;-85
2022/11/05 01:53:42;;;;;;;7.90;4.90;;;5.50;99.90;;;;;;6204369;23;20159;-86
2022/11/05 01:56:20;;;;;;;8.70;5.20;;;5.50;99.90;;;;;;6198218;23;20469;-84
2022/11/05 01:58:51;;;;;;;7.90;5.20;;;5.50;99.90;;;;;;6189943;23;20234;-85
2022/11/05 02:01:17;;;;;;;9.37;5.53;;;5.50;99.90;;;;;;6189823;23;20151;-84
2022/11/05 02:03:44;;;;;;;9.10;5.60;;;5.50;99.90;;;;;;6189585;23;20605;-85
2022/11/05 02:06:12;;;;;;;9.17;5.37;;;5.40;99.90;;;;;;6189703;23;20163;-84
2022/11/05 02:08:54;;;;;;;10.60;5.97;;;5.40;99.90;;;;;;6189263;23;20186;-83
2022/11/05 02:11:19;;;;;;;9.70;5.70;;;5.40;99.90;;;;;;6189804;23;20152;-83
2022/11/05 02:13:47;;;;;;;6.50;5.13;;;5.30;99.90;;;;;;6189468;23;20184;-83
2022/11/05 02:16:18;;;;;;;6.83;5.30;;;5.30;99.90;;;;;;6189611;23;20163;-83
2022/11/05 02:18:59;;;;;;;6.23;4.57;;;5.30;99.90;;;;;;6189531;23;20153;-83
2022/11/05 02:21:52;;;;;;;6.70;4.90;;;5.20;99.90;;;;;;6189528;23;20237;-84
2022/11/05 02:24:29;;;;;;;7.93;4.63;;;5.20;99.90;;;;;;6189617;23;20704;-85
2022/11/05 02:27:13;;;;;;;7.10;5.30;;;5.20;99.90;;;;;;6189594;23;20181;-84
2022/11/05 02:30:18;;;;;;;8.23;5.80;;;5.20;99.90;;;;;;6189285;23;20262;-85
2022/11/05 02:33:13;;;;;;;9.07;5.80;;;5.30;99.90;;;;;;6189528;23;20146;-84
2022/11/05 02:36:03;;;;;;;8.73;5.77;;;5.30;99.90;;;;;;6127362;23;20178;-84
2022/11/05 02:38:38;;;;;;;8.03;6.10;;;5.30;99.90;;;;;;6189444;23;20175;-83
2022/11/05 02:41:24;;;;;;;9.83;6.17;;;5.40;99.90;;;;;;6191180;23;20163;-85
2022/11/05 02:44:08;;;;;;;11.13;6.70;;;5.40;99.90;;;;;;6189687;23;20162;-84
2022/11/05 02:46:52;;;;;;;9.00;6.57;;;5.50;99.90;;;;;;6189423;23;20505;-83
2022/11/05 02:49:35;;;;;;;11.57;7.00;;;5.40;99.90;;;;;;6189513;23;20625;-83
2022/11/05 02:52:07;;;;;;;10.40;7.00;;;5.40;99.90;;;;;;6189386;23;20458;-84
2022/11/05 02:54:41;;;;;;;12.47;8.30;;;5.50;99.90;;;;;;6189170;23;20227;-84
2022/11/05 02:57:07;;;;;;;12.90;8.83;;;5.50;99.90;;;;;;6189438;23;20189;-84
2022/11/05 02:59:32;;;;;;;11.03;8.63;;;5.50;99.90;;;;;;6189371;23;20161;-84
2022/11/05 03:02:01;;;;;;;15.90;9.90;;;5.60;99.90;;;;;;6189450;23;20177;-84
2022/11/05 03:04:28;;;;;;;11.10;8.70;;;5.60;99.90;;;;;;6189359;23;20715;-83
2022/11/05 03:07:05;;;;;;;16.27;9.47;;;5.60;99.90;;;;;;6189250;23;20170;-85
2022/11/05 03:09:39;;;;;;;14.60;9.53;;;5.70;99.90;;;;;;6215767;23;20161;-84
2022/11/05 03:12:33;;;;;;;16.13;9.67;;;5.70;99.90;;;;;;6189270;23;20152;-84
2022/11/05 03:15:04;;;;;;;13.13;9.33;;;5.70;99.90;;;;;;6189263;23;20183;-84
2022/11/05 03:17:48;;;;;;;13.07;8.77;;;5.70;99.90;;;;;;6189274;23;20146;-84
2022/11/05 03:20:41;;;;;;;11.67;8.40;;;5.70;99.90;;;;;;6189261;23;20162;-84
2022/11/05 03:23:10;;;;;;;13.77;8.77;;;5.60;99.90;;;;;;6191290;23;20157;-83
2022/11/05 03:25:46;;;;;;;15.93;9.70;;;5.60;99.90;;;;;;6191000;23;20202;-84
2022/11/05 03:28:13;;;;;;;16.07;9.27;;;5.50;99.90;;;;;;6191034;23;20181;-84
2022/11/05 03:30:41;;;;;;;12.97;9.07;;;5.50;99.90;;;;;;6191262;23;20498;-83
2022/11/05 03:33:11;;;;;;;18.13;9.40;;;5.50;99.90;;;;;;6191079;23;20158;-84
2022/11/05 03:35:42;;;;;;;14.93;9.60;;;5.50;99.90;;;;;;6190943;23;20178;-83
2022/11/05 03:38:17;;;;;;;15.67;9.63;;;5.50;99.90;;;;;;6191120;23;20186;-85
2022/11/05 03:40:46;;;;;;;13.33;10.20;;;5.40;99.90;;;;;;6191040;23;20180;-84
2022/11/05 03:43:13;;;;;;;14.17;9.73;;;5.40;99.90;;;;;;6191030;23;20209;-85
2022/11/05 03:45:49;;;;;;;15.93;9.97;;;5.40;99.90;;;;;;6190981;23;20178;-83
2022/11/05 03:48:16;;;;;;;14.47;9.73;;;5.30;99.90;;;;;;6190970;23;20172;-84
2022/11/05 03:50:52;;;;;;;18.77;10.57;;;5.30;99.90;;;;;;6190815;23;20160;-83
2022/11/05 03:53:24;;;;;;;12.03;9.47;;;5.20;99.90;;;;;;6190816;23;20171;-85
2022/11/05 03:56:28;;;;;;;14.83;10.10;;;5.20;99.90;;;;;;6190717;23;20175;-84
2022/11/05 03:58:55;;;;;;;14.37;8.97;;;5.20;99.90;;;;;;6135051;23;20161;-84
2022/11/05 04:01:21;;;;;;;12.53;8.93;;;5.10;99.90;;;;;;6190997;23;20167;-84
2022/11/05 04:03:47;;;;;;;15.03;9.27;;;5.10;99.90;;;;;;6190702;23;20169;-83
2022/11/05 04:14:27;;;;;;;15.83;10.03;;;5.00;99.90;;;;;;6217622;23;20185;-84
2022/11/05 04:17:11;;;;;;;16.27;10.27;;;5.00;99.90;;;;;;6190733;23;20158;-85
2022/11/05 04:25:14;;;;;;;13.47;9.43;;;4.90;99.90;;;;;;6217414;23;20244;-84
2022/11/05 04:27:40;;;;;;;16.03;10.33;;;4.90;99.90;;;;;;6190432;23;20211;-82
2022/11/05 04:30:18;;;;;;;12.77;8.97;;;4.90;99.90;;;;;;6190592;23;20239;-85
2022/11/05 04:33:04;;;;;;;14.20;9.73;;;4.90;99.90;;;;;;6190490;23;20160;-84
2022/11/05 04:35:44;;;;;;;15.27;9.43;;;4.80;99.90;;;;;;6190254;23;20201;-84
2022/11/05 04:38:16;;;;;;;11.00;9.03;;;4.80;99.90;;;;;;6190551;23;20157;-84
2022/11/05 04:40:43;;;;;;;14.47;9.40;;;4.70;99.90;;;;;;6191465;23;20219;-85
2022/11/05 04:43:12;;;;;;;14.13;9.80;;;4.70;99.90;;;;;;6192504;23;20552;-84
2022/11/05 04:45:37;;;;;;;14.73;9.23;;;4.70;99.90;;;;;;6190556;23;20650;-84
2022/11/05 04:48:03;;;;;;;19.90;11.23;;;4.70;99.90;;;;;;6190514;23;20180;-84
2022/11/05 04:50:29;;;;;;;13.10;9.53;;;4.70;99.90;;;;;;6190228;23;20663;-83
2022/11/05 04:52:55;;;;;;;14.43;9.90;;;4.70;99.90;;;;;;6190266;23;20166;-84
2022/11/05 04:55:21;;;;;;;16.00;9.73;;;4.70;99.90;;;;;;6216793;23;20205;-84
2022/11/05 04:57:50;;;;;;;13.10;9.47;;;4.70;99.90;;;;;;6216680;23;20606;-85
2022/11/05 05:00:18;;;;;;;16.10;9.97;;;4.60;99.90;;;;;;6190148;23;20162;-85
2022/11/05 05:02:44;;;;;;;14.30;9.33;;;4.70;99.90;;;;;;6190052;23;20191;-84
2022/11/05 05:05:09;;;;;;;17.57;10.67;;;4.70;99.90;;;;;;6189967;23;20189;-85
2022/11/05 05:07:35;;;;;;;13.67;9.23;;;4.70;99.90;;;;;;6190142;23;20190;-84
2022/11/05 05:10:01;;;;;;;14.90;9.27;;;4.70;99.90;;;;;;6189913;23;20181;-83
2022/11/05 05:12:27;;;;;;;14.40;9.80;;;4.70;99.90;;;;;;6189914;23;20156;-83
2022/11/05 05:14:53;;;;;;;15.27;9.30;;;4.70;99.90;;;;;;6189818;23;20178;-85
2022/11/05 05:17:18;;;;;;;20.20;9.00;;;4.70;99.90;;;;;;6190043;23;20160;-84
2022/11/05 05:22:28;;;;;;;16.50;9.07;;;4.70;99.90;;;;;;6216573;23;20156;-85
2022/11/05 05:24:55;;;;;;;16.30;9.40;;;4.70;99.90;;;;;;6189577;23;20631;-85
2022/11/05 05:27:22;;;;;;;13.83;9.40;;;4.70;99.90;;;;;;6190055;23;20263;-84
2022/11/05 05:29:49;;;;;;;13.57;8.60;;;4.70;99.90;;;;;;6164960;23;20276;-85
2022/11/05 05:32:15;;;;;;;13.13;9.57;;;4.80;99.90;;;;;;6189928;23;20153;-85
2022/11/05 05:34:40;;;;;;;12.57;8.50;;;4.70;99.90;;;;;;6189770;23;20236;-85
2022/11/05 05:37:06;;;;;;;16.67;9.57;;;4.70;99.90;;;;;;6189728;23;20236;-85
2022/11/05 05:39:31;;;;;;;13.97;8.87;;;4.70;99.90;;;;;;6193386;23;20157;-84
2022/11/05 05:41:57;;;;;;;16.17;8.80;;;4.70;99.90;;;;;;6189529;23;20404;-86
2022/11/05 05:44:22;;;;;;;13.03;8.90;;;4.70;99.90;;;;;;6189348;23;20187;-85
2022/11/05 05:46:48;;;;;;;13.67;8.20;;;4.60;99.90;;;;;;6189535;23;20239;-85
2022/11/05 05:49:13;;;;;;;12.30;8.17;;;4.60;99.90;;;;;;6189699;23;20264;-84
2022/11/05 05:51:39;;;;;;;11.03;8.00;;;4.50;99.90;;;;;;6189693;23;20158;-85
2022/11/05 05:54:05;;;;;;;13.20;8.20;;;4.40;99.90;;;;;;6189735;23;20184;-84
2022/11/05 05:56:30;;;;;;;9.00;7.50;;;4.40;99.90;;;;;;6216578;23;20154;-84
2022/11/05 05:58:56;;;;;;;14.60;7.83;;;4.40;99.90;;;;;;6189744;23;20188;-83
2022/11/05 06:01:22;;;;;;;11.90;8.50;;;4.40;99.90;;;;;;6189579;23;20162;-83
2022/11/05 06:03:48;;;;;;;11.70;7.40;;;4.40;99.90;;;;;;6216483;23;20145;-84
2022/11/05 06:06:18;;;;;;;14.90;8.90;;;4.30;99.90;;;;;;6189595;23;20183;-86
2022/11/05 06:08:44;;;;;;;10.50;7.40;;;4.50;99.90;;;;;;6189382;23;20210;-85
2022/11/05 06:11:11;;;;;;;11.23;7.90;;;4.30;99.90;;;;;;6189640;23;20243;-84
2022/11/05 06:13:36;;;;;;;13.83;8.63;;;4.30;99.90;;;;;;6189580;23;20188;-85
2022/11/05 06:16:05;;;;;;;12.47;6.97;;;4.20;99.90;;;;;;6189487;23;20194;-85
2022/11/05 06:18:31;;;;;;;13.00;7.13;;;4.20;99.90;;;;;;6189642;23;20161;-85
2022/11/05 06:21:08;;;;;;;12.70;7.13;;;4.20;99.90;;;;;;6189575;23;20235;-87
2022/11/05 06:23:36;;;;;;;11.73;7.60;;;4.20;99.90;;;;;;6216299;23;20595;-87
2022/11/05 06:26:05;;;;;;;11.90;7.47;;;4.10;99.90;;;;;;6216071;23;20199;-86
2022/11/05 06:28:32;;;;;;;14.43;8.17;;;4.10;99.90;;;;;;6189804;23;20266;-87
2022/11/05 06:30:57;;;;;;;12.20;7.90;;;4.10;99.90;;;;;;6189876;23;20592;-87
2022/11/05 06:33:23;;;;;;;13.27;7.53;;;4.10;99.90;;;;;;6189744;23;20171;-87
2022/11/05 06:35:49;;;;;;;13.30;7.47;;;4.10;99.90;;;;;;6189643;23;20184;-87
2022/11/05 06:38:15;;;;;;;10.80;6.47;;;4.10;99.90;;;;;;6190774;23;20602;-87
2022/11/05 06:40:40;;;;;;;10.83;7.37;;;4.10;99.90;;;;;;6192337;23;20176;-88
2022/11/05 06:43:06;;;;;;;10.20;7.00;;;4.10;99.90;;;;;;6190337;23;20156;-87
2022/11/05 06:45:31;;;;;;;8.90;6.70;;;4.10;99.90;;;;;;6189850;23;20176;-87
2022/11/05 06:47:58;;;;;;;14.63;7.30;;;4.10;99.90;;;;;;6189932;23;20163;-86
2022/11/05 06:50:25;;;;;;;11.37;7.60;;;4.10;99.90;;;;;;6216092;23;20204;-86
2022/11/05 06:52:59;;;;;;;12.73;7.67;;;4.00;99.90;;;;;;6189596;23;20246;-86
2022/11/05 06:55:26;;;;;;;11.97;7.37;;;4.00;99.90;;;;;;6217546;23;20176;-87
2022/11/05 06:57:52;;;;;;;11.30;7.20;;;4.00;99.90;;;;;;6192096;23;20160;-88
2022/11/05 07:00:18;;;;;;;12.73;7.83;;;4.00;99.90;;;;;;6192000;23;20223;-87
2022/11/05 07:02:45;;;;;;;10.93;7.00;;;4.00;99.90;;;;;;6191640;23;20202;-87
2022/11/05 07:05:11;;;;;;;14.37;7.40;;;4.00;99.90;;;;;;6191988;23;20255;-88
2022/11/05 07:07:37;;;;;;;9.67;7.33;;;3.90;99.90;;;;;;6191873;23;20156;-88
2022/11/05 07:10:05;;;;;;;13.17;7.53;;;3.90;99.90;;;;;;6191653;23;20234;-88
2022/11/05 07:12:30;;;;;;;11.53;7.60;;;3.90;99.90;;;;;;6191610;23;20210;-87
2022/11/05 07:14:56;;;;;;;13.73;8.40;;;4.10;99.90;;;;;;6191513;23;20180;-87
2022/11/05 07:17:22;;;;;;;10.47;7.47;;;3.90;99.90;;;;;;6191466;23;20180;-88
2022/11/05 07:19:48;;;;;;;15.23;8.20;;;3.90;99.90;;;;;;6191459;23;20171;-87
2022/11/05 07:22:13;;;;;;;10.80;7.83;;;3.90;99.90;;;;;;6191546;23;20156;-88
2022/11/05 07:24:39;;;;;;;16.43;8.07;;;3.90;99.90;;;;;;6191267;23;20180;-86
2022/11/05 07:27:04;;;;;;;12.10;7.60;;;3.90;99.90;;;;;;6191351;23;20192;-88
2022/11/05 07:29:30;;;;;;;15.00;7.30;;;4.00;99.90;;;;;;6191598;23;20575;-87
2022/11/05 07:31:55;;;;;;;14.10;8.23;;;4.80;99.90;;;;;;6191662;23;20493;-87
2022/11/05 07:34:21;;;;;;;11.23;7.83;;;4.00;99.90;;;;;;6191353;23;20176;-87
2022/11/05 07:36:47;;;;;;;15.73;8.13;;;4.00;99.90;;;;;;6191487;23;20157;-88
2022/11/05 07:39:12;;;;;;;12.50;8.37;;;4.00;99.90;;;;;;6191328;23;20165;-87
2022/11/05 07:41:38;;;;;;;13.40;8.47;;;4.10;99.90;;;;;;6191295;23;20192;-86
2022/11/05 07:44:03;;;;;;;12.40;8.50;;;4.10;99.90;;;;;;6191321;23;20156;-87
2022/11/05 07:46:29;;;;;;;13.20;8.43;;;4.20;99.90;;;;;;6191298;23;20169;-86
2022/11/05 07:48:55;;;;;;;19.07;9.30;;;4.30;99.90;;;;;;6191109;23;20230;-87
2022/11/05 07:51:21;;;;;;;13.97;8.87;;;4.30;99.90;;;;;;6191401;23;20152;-87
2022/11/05 07:53:47;;;;;;;15.50;9.33;;;4.40;99.90;;;;;;6191868;23;20168;-88
2022/11/05 07:56:13;;;;;;;15.00;9.17;;;6.10;99.90;;;;;;6191192;23;20227;-87
2022/11/05 07:58:39;;;;;;;14.27;9.37;;;4.60;99.90;;;;;;6191093;23;20166;-87
2022/11/05 08:01:05;;;;;;;17.00;8.93;;;4.80;99.90;;;;;;6191469;23;20188;-88
2022/11/05 08:03:32;;;;;;;17.40;8.97;;;4.90;99.90;;;;;;6191297;23;20160;-86
2022/11/05 08:05:58;;;;;;;16.27;10.03;;;5.00;99.90;;;;;;6190853;23;20635;-88
2022/11/05 08:08:24;;;;;;;17.33;9.80;;;5.20;99.90;;;;;;6190959;23;20219;-87
2022/11/05 08:10:49;;;;;;;16.63;9.97;;;5.30;99.90;;;;;;6191278;23;20160;-87
2022/11/05 08:13:15;;;;;;;16.83;9.63;;;5.40;99.90;;;;;;6191695;23;20158;-87
2022/11/05 08:15:42;;;;;;;16.43;10.33;;;5.90;99.90;;;;;;6191368;23;20706;-87
2022/11/05 08:18:11;;;;;;;19.73;9.87;;;5.70;99.90;;;;;;6191203;23;20171;-88
2022/11/05 08:20:37;;;;;;;17.23;9.93;;;6.70;99.90;;;;;;6217941;23;20537;-87
2022/11/05 08:23:03;;;;;;;15.50;9.83;;;5.90;99.90;;;;;;6191197;23;20239;-87
2022/11/05 08:25:29;;;;;;;18.07;10.73;;;6.00;99.90;;;;;;6191216;23;20529;-86
2022/11/05 08:28:01;;;;;;;14.57;9.00;;;6.20;99.90;;;;;;6191186;23;20167;-87
2022/11/05 08:30:28;;;;;;;23.03;10.33;;;6.30;99.90;;;;;;6191271;23;20235;-87
2022/11/05 08:33:02;;;;;;;16.03;9.77;;;6.40;99.90;;;;;;6191303;23;20153;-87
2022/11/05 08:35:28;;;;;;;18.17;9.57;;;6.50;99.90;;;;;;6191250;23;20675;-86
2022/11/05 08:37:59;;;;;;;19.33;10.13;;;6.80;99.90;;;;;;6191206;23;20243;-87
2022/11/05 08:40:25;;;;;;;17.60;10.30;;;6.70;99.90;;;;;;6191313;23;20606;-87
2022/11/05 08:42:51;;;;;;;17.67;10.23;;;6.80;99.90;;;;;;6190708;23;20165;-85
2022/11/05 08:45:17;;;;;;;20.83;10.00;;;6.90;99.90;;;;;;6190874;23;20181;-86
2022/11/05 08:47:43;;;;;;;18.73;10.23;;;7.00;99.90;;;;;;6191868;23;20221;-85
2022/11/05 08:50:08;;;;;;;16.30;9.87;;;7.30;99.90;;;;;;6191390;23;20194;-86
2022/11/05 08:52:34;;;;;;;15.47;9.70;;;7.20;99.90;;;;;;6191632;23;20182;-88
2022/11/05 08:54:59;;;;;;;15.60;9.30;;;7.30;99.90;;;;;;6191281;23;20570;-86
2022/11/05 08:57:26;;;;;;;17.23;10.30;;;8.20;99.90;;;;;;6191104;23;20161;-88
2022/11/05 08:59:51;;;;;;;15.87;9.90;;;7.40;99.90;;;;;;6191909;23;20246;-88
2022/11/05 09:02:17;;;;;;;15.17;9.17;;;8.40;99.90;;;;;;6191319;23;20667;-89
2022/11/05 09:04:43;;;;;;;15.80;9.27;;;8.10;99.90;;;;;;6191791;23;20271;-89
2022/11/05 09:07:09;;;;;;;13.43;8.53;;;7.80;99.90;;;;;;6190312;23;20199;-89
2022/11/05 09:09:34;;;;;;;19.80;9.63;;;7.90;99.90;;;;;;6190387;23;20196;-89
2022/11/05 09:12:00;;;;;;;15.83;8.77;;;8.00;99.90;;;;;;6190308;23;20603;-88
2022/11/05 09:14:25;;;;;;;18.53;9.17;;;8.00;99.90;;;;;;6190360;23;20183;-87
2022/11/05 09:16:52;;;;;;;15.63;8.43;;;8.10;99.90;;;;;;6190317;23;20163;-86
2022/11/05 09:19:17;;;;;;;19.50;8.33;;;8.30;99.90;;;;;;6190314;23;20734;-88
2022/11/05 09:21:43;;;;;;;14.07;7.80;;;8.30;99.90;;;;;;6190396;23;20160;-88
2022/11/05 09:24:09;;;;;;;9.70;7.10;;;8.60;99.90;;;;;;6190038;23;20207;-88
2022/11/05 09:26:34;;;;;;;13.80;6.87;;;8.90;99.90;;;;;;6189968;23;20512;-87
2022/11/05 09:29:00;;;;;;;13.43;7.43;;;8.70;99.90;;;;;;6189934;23;20634;-88
2022/11/05 09:31:25;;;;;;;14.90;7.10;;;8.80;99.90;;;;;;6190465;23;20165;-88
2022/11/05 09:33:51;;;;;;;10.20;6.70;;;8.90;99.90;;;;;;6190736;23;20161;-87
2022/11/05 09:36:16;;;;;;;13.93;7.50;;;9.90;99.90;;;;;;6190486;23;20156;-87
2022/11/05 09:38:42;;;;;;;14.07;7.30;;;9.10;99.90;;;;;;6190760;23;20260;-87
2022/11/05 09:41:18;;;;;;;16.13;6.73;;;9.20;99.90;;;;;;6190713;23;20239;-87
2022/11/05 09:43:50;;;;;;;9.07;6.43;;;9.30;99.90;;;;;;6217039;23;20514;-89
2022/11/05 09:46:26;;;;;;;10.17;6.10;;;9.60;99.90;;;;;;6190158;23;20580;-89
2022/11/05 09:48:57;;;;;;;11.93;5.93;;;9.50;99.90;;;;;;6194233;23;20180;-87
2022/11/05 09:51:23;;;;;;;10.47;5.97;;;9.60;99.90;;;;;;6206290;23;20154;-90
2022/11/05 09:53:48;;;;;;;11.10;5.70;;;9.70;99.90;;;;;;6204927;23;20162;-89
2022/11/05 09:56:21;;;;;;;8.67;5.47;;;9.80;99.90;;;;;;6203718;23;20140;-90
2022/11/05 09:59:10;;;;;;;12.30;6.17;;;9.80;99.90;;;;;;6202299;23;20247;-91
2022/11/05 10:01:37;;;;;;;9.43;5.73;;;9.90;99.90;;;;;;6192144;23;20586;-88
2022/11/05 10:04:16;;;;;;;12.50;5.47;;;10.00;99.90;;;;;;6190121;23;20160;-88
2022/11/05 10:06:48;;;;;;;13.00;5.30;;;10.10;99.90;;;;;;6190024;23;20202;-88
2022/11/05 10:09:23;;;;;;;7.73;4.50;;;10.20;99.90;;;;;;6189959;23;20522;-89
2022/11/05 10:12:06;;;;;;;10.27;5.30;;;10.40;99.90;;;;;;6189879;23;20148;-89
2022/11/05 10:14:38;;;;;;;8.20;4.70;;;10.40;99.90;;;;;;6189730;23;20198;-89
2022/11/05 10:17:21;;;;;;;9.07;5.10;;;10.60;99.90;;;;;;6189817;23;20282;-88
2022/11/05 10:20:22;;;;;;;10.33;5.17;;;10.50;99.90;;;;;;6189837;23;20607;-89
2022/11/05 10:22:53;;;;;;;8.57;5.00;;;10.50;99.90;;;;;;6189968;23;20154;-89
2022/11/05 10:25:21;;;;;;;9.57;4.97;;;10.50;99.90;;;;;;6189414;23;20203;-90
2022/11/05 10:27:53;;;;;;;9.17;4.33;;;10.60;99.90;;;;;;6189857;23;20156;-87
2022/11/05 10:30:19;;;;;;;10.93;5.37;;;10.60;99.90;;;;;;6189387;23;20215;-88
2022/11/05 10:32:46;;;;;;;10.13;5.60;;;10.70;99.90;;;;;;6216350;23;20205;-88
2022/11/05 10:35:17;;;;;;;8.60;5.33;;;11.50;99.90;;;;;;6189720;23;20262;-90
2022/11/05 10:37:46;;;;;;;10.83;5.23;;;11.00;99.90;;;;;;6189618;23;20151;-89
2022/11/05 10:40:45;;;;;;;9.90;5.23;;;10.90;99.90;;;;;;6189618;23;20165;-89
2022/11/05 10:43:34;;;;;;;7.83;5.00;;;11.00;99.90;;;;;;6129512;23;20163;-88
2022/11/05 10:46:23;;;;;;;8.67;4.93;;;11.00;99.90;;;;;;6130122;23;20326;-88
2022/11/05 10:49:18;;;;;;;11.87;5.10;;;11.10;99.90;;;;;;6190665;23;20250;-88
2022/11/05 10:51:50;;;;;;;10.50;5.13;;;11.20;99.90;;;;;;6189914;23;20235;-88
2022/11/05 10:54:20;;;;;;;9.20;4.97;;;11.40;99.90;;;;;;6189639;23;20210;-89
2022/11/05 10:56:46;;;;;;;12.13;5.43;;;11.40;99.90;;;;;;6189561;23;20239;-86
2022/11/05 10:59:21;;;;;;;10.03;5.27;;;11.50;99.90;;;;;;6189115;23;20242;-88
2022/11/05 11:01:54;;;;;;;7.73;5.17;;;11.60;99.90;;;;;;6189611;23;20239;-88
2022/11/05 11:04:23;;;;;;;12.87;5.20;;;11.50;99.90;;;;;;6190133;23;20212;-88
2022/11/05 11:06:52;;;;;;;7.90;4.27;;;11.60;99.90;;;;;;6189446;23;20156;-87
2022/11/05 11:09:27;;;;;;;12.67;4.53;;;11.60;99.90;;;;;;6189495;23;20272;-87
2022/11/05 11:11:58;;;;;;;6.30;4.40;;;11.60;99.90;;;;;;6189200;23;20160;-89
2022/11/05 11:14:24;;;;;;;8.00;4.70;;;11.60;99.90;;;;;;6189469;23;20180;-84
2022/11/05 11:16:52;;;;;;;6.80;4.60;;;11.80;99.90;;;;;;6189667;23;20413;-84
2022/11/05 11:19:23;;;;;;;7.63;4.83;;;11.80;99.90;;;;;;6216129;23;20156;-84
2022/11/05 11:22:04;;;;;;;7.53;4.50;;;11.70;99.90;;;;;;6189446;23;20182;-85
2022/11/05 11:24:36;;;;;;;8.97;5.17;;;11.80;99.90;;;;;;6215754;23;20179;-86
2022/11/05 11:27:04;;;;;;;9.07;4.80;;;11.80;99.90;;;;;;6189390;23;20187;-85
2022/11/05 11:29:34;;;;;;;9.83;4.80;;;11.90;99.90;;;;;;6189284;23;20184;-87
2022/11/05 11:32:01;;;;;;;8.83;4.80;;;11.90;99.90;;;;;;6189364;23;20145;-85
2022/11/05 11:34:26;;;;;;;9.60;4.93;;;12.60;99.90;;;;;;6189421;23;20218;-86
2022/11/05 11:37:01;;;;;;;13.33;4.70;;;12.00;99.90;;;;;;6190065;23;20592;-86
2022/11/05 11:39:29;;;;;;;8.43;4.83;;;12.20;99.90;;;;;;6193397;23;20178;-85
2022/11/05 11:41:59;;;;;;;6.80;4.60;;;12.60;99.90;;;;;;6190251;23;20236;-86
2022/11/05 11:44:28;;;;;;;9.20;4.87;;;12.90;99.90;;;;;;6190980;23;20183;-85
2022/11/05 11:46:59;;;;;;;9.60;4.70;;;12.50;99.90;;;;;;6190928;23;20197;-88
2022/11/05 11:49:40;;;;;;;8.23;4.10;;;12.10;99.90;;;;;;6191084;23;20622;-85
2022/11/05 11:52:12;;;;;;;8.77;4.53;;;12.20;99.90;;;;;;6191026;23;20647;-85
2022/11/05 11:54:38;;;;;;;9.20;4.47;;;12.20;99.90;;;;;;6190894;23;20704;-85
2022/11/05 11:57:19;;;;;;;7.97;3.53;;;12.20;99.90;;;;;;6190872;23;20239;-85
2022/11/05 11:59:44;;;;;;;4.47;3.13;;;12.20;99.90;;;;;;6191160;23;20149;-86
2022/11/05 12:02:43;;;;;;;5.47;3.27;;;12.20;99.90;;;;;;6191033;23;20157;-85
2022/11/05 12:05:28;;;;;;;5.17;3.33;;;12.20;99.90;;;;;;6190714;23;20188;-86
2022/11/05 12:07:58;;;;;;;8.30;2.97;;;12.20;99.90;;;;;;6190963;23;20623;-84
2022/11/05 12:10:51;;;;;;;5.20;3.40;;;12.10;99.90;;;;;;6190553;23;20665;-86
2022/11/05 12:13:28;;;;;;;8.97;4.20;;;12.10;99.90;;;;;;6190740;23;20583;-86
2022/11/05 12:16:03;;;;;;;7.87;4.10;;;12.20;99.90;;;;;;6190736;23;20176;-86
2022/11/05 12:18:35;;;;;;;6.93;3.93;;;12.20;99.90;;;;;;6190857;23;20243;-86
2022/11/05 12:21:13;;;;;;;9.13;4.40;;;12.20;99.90;;;;;;6190586;23;20156;-85
2022/11/05 12:23:51;;;;;;;7.40;4.40;;;12.30;99.90;;;;;;6190543;23;20140;-86
2022/11/05 12:26:39;;;;;;;6.97;4.00;;;12.30;99.90;;;;;;6190602;23;20180;-85
2022/11/05 12:29:11;;;;;;;7.43;3.67;;;12.30;99.90;;;;;;6217088;23;20192;-86
2022/11/05 12:32:08;;;;;;;8.77;3.77;;;12.30;99.90;;;;;;6190796;23;20182;-86
2022/11/05 12:34:50;;;;;;;8.43;4.07;;;12.30;99.90;;;;;;6190460;23;20234;-86
2022/11/05 12:37:46;;;;;;;5.67;4.17;;;12.30;99.90;;;;;;6190536;23;20172;-85
2022/11/05 12:40:21;;;;;;;8.50;4.50;;;12.40;99.90;;;;;;6190527;23;20214;-85
2022/11/05 12:42:55;;;;;;;10.73;4.60;;;12.40;99.90;;;;;;6190705;23;20160;-86
2022/11/05 12:45:49;;;;;;;7.07;3.60;;;12.60;99.90;;;;;;6190428;23;20231;-85
2022/11/05 12:48:45;;;;;;;6.70;3.80;;;12.50;99.90;;;;;;6190515;23;20145;-85
2022/11/05 12:51:29;;;;;;;11.60;3.50;;;12.70;99.90;;;;;;6190299;23;20227;-86
2022/11/05 12:54:11;;;;;;;6.53;3.53;;;12.90;99.90;;;;;;6216717;23;20190;-86
2022/11/05 12:56:51;;;;;;;4.80;3.40;;;12.70;99.90;;;;;;6190677;23;20149;-87
2022/11/05 13:00:01;;;;;;;5.33;3.23;;;12.70;99.90;;;;;;6190385;23;20226;-88
2022/11/05 13:02:40;;;;;;;5.00;3.10;;;12.80;99.90;;;;;;6165357;23;20602;-85
2022/11/05 13:05:14;;;;;;;6.20;3.23;;;12.70;99.90;;;;;;6217129;23;20198;-86
2022/11/05 13:07:51;;;;;;;7.77;2.77;;;12.80;99.90;;;;;;6190340;23;20149;-87
2022/11/05 13:10:40;;;;;;;5.23;2.70;;;12.80;99.90;;;;;;6190221;23;20176;-86
2022/11/05 13:13:21;;;;;;;4.17;2.50;;;12.80;99.90;;;;;;6190485;23;20251;-87
2022/11/05 13:15:58;;;;;;;3.03;2.40;;;12.70;99.90;;;;;;6190240;23;20168;-86
2022/11/05 13:18:33;;;;;;;6.87;2.50;;;12.70;99.90;;;;;;6190346;23;20171;-86
2022/11/05 13:21:03;;;;;;;9.03;2.73;;;12.80;99.90;;;;;;6194209;23;20144;-85
2022/11/05 13:23:34;;;;;;;7.47;2.27;;;12.80;99.90;;;;;;6193731;23;20171;-86
2022/11/05 13:26:09;;;;;;;6.00;2.33;;;12.70;99.90;;;;;;6192951;23;20191;-86
2022/11/05 13:28:35;;;;;;;4.97;2.50;;;12.80;99.90;;;;;;6190047;23;20182;-86
2022/11/05 13:31:04;;;;;;;5.63;2.30;;;12.80;99.90;;;;;;6190263;23;20187;-84
2022/11/05 13:33:34;;;;;;;5.20;1.43;;;12.80;99.90;;;;;;6189939;23;20299;-87
2022/11/05 13:39:11;;;;;;;6.10;1.63;;;12.70;99.90;;;;;;6216967;23;20183;-89
2022/11/05 13:42:15;;;;;;;4.33;1.90;;;12.70;99.90;;;;;;6190112;23;20610;-88
2022/11/05 13:44:49;;;;;;;4.83;1.80;;;12.70;99.90;;;;;;6145429;23;20187;-86
2022/11/05 13:47:54;;;;;;;3.20;1.30;;;12.60;99.90;;;;;;6190089;23;20290;-86
2022/11/05 13:50:29;;;;;;;5.50;1.60;;;12.60;99.90;;;;;;6216484;23;20211;-86
2022/11/05 13:53:41;;;;;;;2.87;1.50;;;12.60;99.90;;;;;;6190044;23;20163;-85